Time,TemperatureF,DewpointF,PressureIn,WindDirection,WindDirectionDegrees,WindSpeedMPH,WindSpeedGustMPH,Humidity,HourlyPrecipIn,Conditions,Clouds,dailyrainin,SoftwareType,DateUTC
2013-09-07 00:12:00,61.0,57.0,30.12,ESE,108,0.0,2.0,86,0.00,,,0.02,,2013-09-07 07:12:00,
2013-09-07 00:22:00,60.0,56.0,30.11,ESE,109,1.0,3.0,87,0.00,,,0.01,,2013-09-07 07:22:00,
2013-09-07 00:42:00,60.0,56.0,30.11,ESE,109,0.0,1.0,87,0.00,,,0.01,,2013-09-07 07:42:00,
2013-09-07 00:52:00,60.0,56.0,30.12,ESE,109,0.0,0.0,88,0.00,,,0.01,,2013-09-07 07:52:00,
2013-09-07 01:12:00,59.0,56.0,30.11,ESE,109,0.0,0.0,89,0.00,,,0.01,,2013-09-07 08:12:00,
2013-09-07 01:21:00,59.0,56.0,30.11,ESE,109,0.0,0.0,90,0.00,,,0.01,,2013-09-07 08:21:00,
2013-09-07 01:43:00,59.0,56.0,30.11,ESE,112,2.0,3.0,89,0.00,,,0.01,,2013-09-07 08:43:00,
2013-09-07 01:53:00,58.0,55.0,30.11,ESE,113,0.0,0.0,91,0.00,,,0.01,,2013-09-07 08:53:00,
2013-09-07 02:12:00,58.0,56.0,30.10,ESE,105,0.0,0.0,92,0.00,,,0.01,,2013-09-07 09:12:00,
2013-09-07 02:21:00,59.0,56.0,30.11,SSW,200,1.0,3.0,91,0.00,,,0.01,,2013-09-07 09:21:00,
2013-09-07 02:42:00,59.0,56.0,30.11,SE,133,0.0,3.0,90,0.00,,,0.01,,2013-09-07 09:42:00,
2013-09-07 02:52:00,58.0,55.0,30.11,SE,133,0.0,0.0,90,0.00,,,0.01,,2013-09-07 09:52:00,
2013-09-07 03:11:00,57.0,54.0,30.11,SE,133,0.0,0.0,91,0.00,,,0.01,,2013-09-07 10:11:00,
2013-09-07 03:21:00,57.0,55.0,30.11,ESE,119,0.0,0.0,92,0.00,,,0.01,,2013-09-07 10:21:00,
2013-09-07 03:41:00,57.0,55.0,30.11,ESE,119,0.0,0.0,93,0.00,,,0.01,,2013-09-07 10:41:00,
2013-09-07 03:51:00,57.0,55.0,30.11,ESE,119,0.0,0.0,92,0.00,,,0.01,,2013-09-07 10:51:00,
2013-09-07 04:13:00,57.0,55.0,30.11,ESE,115,3.0,5.0,92,0.00,,,0.01,,2013-09-07 11:13:00,
2013-09-07 04:23:00,58.0,55.0,30.11,ENE,74,2.0,7.0,90,0.00,,,0.01,,2013-09-07 11:23:00,
2013-09-07 04:43:00,58.0,55.0,30.11,SE,125,2.0,4.0,90,0.00,,,0.01,,2013-09-07 11:43:00,
2013-09-07 04:52:00,57.0,55.0,30.11,SE,125,0.0,0.0,92,0.00,,,0.01,,2013-09-07 11:52:00,
2013-09-07 05:12:00,57.0,54.0,30.11,East,84,2.0,3.0,91,0.00,,,0.01,,2013-09-07 12:12:00,
2013-09-07 05:22:00,57.0,54.0,30.11,ESE,105,0.0,2.0,91,0.00,,,0.01,,2013-09-07 12:22:00,
2013-09-07 05:42:00,57.0,55.0,30.11,ESE,105,2.0,3.0,92,0.00,,,0.01,,2013-09-07 12:42:00,
2013-09-07 05:52:00,58.0,56.0,30.11,East,89,2.0,3.0,92,0.00,,,0.01,,2013-09-07 12:52:00,
2013-09-07 06:11:00,58.0,55.0,30.11,East,101,3.0,5.0,90,0.00,,,0.01,,2013-09-07 13:11:00,
2013-09-07 06:21:00,58.0,55.0,30.11,SE,135,4.0,5.0,91,0.00,,,0.01,,2013-09-07 13:21:00,
2013-09-07 06:52:00,58.0,55.0,30.11,East,100,3.0,5.0,90,0.00,,,0.01,,2013-09-07 13:52:00,
2013-09-07 07:11:00,58.0,55.0,30.11,East,83,1.0,5.0,90,0.00,,,0.01,,2013-09-07 14:11:00,
2013-09-07 07:22:00,58.0,55.0,30.11,East,92,0.0,1.0,89,0.00,,,0.01,,2013-09-07 14:22:00,
2013-09-07 07:52:00,59.0,56.0,30.11,ESE,107,2.0,5.0,89,0.00,,,0.01,,2013-09-07 14:52:00,
2013-09-07 08:11:00,58.0,55.0,30.10,SE,132,3.0,4.0,90,0.00,,,0.01,,2013-09-07 15:11:00,
2013-09-07 08:22:00,59.0,56.0,30.11,ESE,102,1.0,4.0,90,0.00,,,0.01,,2013-09-07 15:22:00,
2013-09-07 08:44:00,59.0,56.0,30.11,East,98,1.0,3.0,89,0.00,,,0.01,,2013-09-07 15:44:00,
2013-09-07 08:54:00,59.0,56.0,30.10,SE,130,4.0,5.0,89,0.00,,,0.01,,2013-09-07 15:54:00,
2013-09-07 09:12:00,59.0,56.0,30.11,ESE,117,3.0,4.0,89,0.00,,,0.01,,2013-09-07 16:12:00,
2013-09-07 09:24:00,59.0,56.0,30.11,SE,126,2.0,5.0,89,0.00,,,0.01,,2013-09-07 16:24:00,
2013-09-07 09:43:00,60.0,56.0,30.11,SE,126,4.0,5.0,88,0.00,,,0.01,,2013-09-07 16:43:00,
2013-09-07 09:53:00,60.0,56.0,30.11,ESE,102,2.0,4.0,88,0.00,,,0.01,,2013-09-07 16:53:00,
2013-09-07 10:12:00,60.0,56.0,30.12,East,96,3.0,5.0,86,0.00,,,0.01,,2013-09-07 17:12:00,
2013-09-07 10:24:00,61.0,56.0,30.12,East,99,4.0,5.0,85,0.00,,,0.01,,2013-09-07 17:24:00,
2013-09-07 10:43:00,61.0,56.0,30.12,East,98,2.0,6.0,85,0.00,,,0.01,,2013-09-07 17:43:00,
2013-09-07 10:52:00,61.0,57.0,30.12,ESE,115,3.0,4.0,86,0.00,,,0.01,,2013-09-07 17:52:00,
2013-09-07 11:12:00,61.0,57.0,30.12,SE,143,3.0,5.0,86,0.00,,,0.01,,2013-09-07 18:12:00,
2013-09-07 11:21:00,61.0,57.0,30.12,ESE,108,2.0,6.0,88,0.00,,,0.01,,2013-09-07 18:21:00,
2013-09-07 11:43:00,61.0,57.0,30.12,ESE,103,2.0,5.0,88,0.01,,,0.02,,2013-09-07 18:43:00,
2013-09-07 11:52:00,61.0,58.0,30.12,ESE,102,1.0,4.0,90,0.01,,,0.02,,2013-09-07 18:52:00,
2013-09-07 12:11:00,61.0,58.0,30.12,SE,133,5.0,7.0,89,0.02,,,0.03,,2013-09-07 19:11:00,
2013-09-07 12:21:00,61.0,58.0,30.11,East,84,2.0,5.0,90,0.02,,,0.03,,2013-09-07 19:21:00,
2013-09-07 12:42:00,61.0,58.0,30.11,ESE,123,2.0,5.0,89,0.01,,,0.03,,2013-09-07 19:42:00,
2013-09-07 12:52:00,61.0,57.0,30.10,ESE,107,2.0,5.0,88,0.01,,,0.03,,2013-09-07 19:52:00,
2013-09-07 13:11:00,62.0,58.0,30.11,ESE,111,0.0,2.0,88,0.00,,,0.03,,2013-09-07 20:11:00,
2013-09-07 13:22:00,62.0,58.0,30.10,ESE,107,0.0,2.0,86,0.00,,,0.03,,2013-09-07 20:22:00,
2013-09-07 13:42:00,63.0,58.0,30.10,ESE,109,0.0,1.0,84,0.00,,,0.03,,2013-09-07 20:42:00,
2013-09-07 13:53:00,63.0,58.0,30.10,SE,125,1.0,3.0,85,0.00,,,0.03,,2013-09-07 20:53:00,
2013-09-07 14:12:00,63.0,58.0,30.10,ESE,118,2.0,4.0,85,0.00,,,0.03,,2013-09-07 21:12:00,
2013-09-07 14:22:00,64.0,59.0,30.10,SSE,153,2.0,4.0,84,0.00,,,0.03,,2013-09-07 21:22:00,
2013-09-07 14:44:00,64.0,59.0,30.09,SE,140,1.0,5.0,83,0.00,,,0.03,,2013-09-07 21:44:00,
2013-09-07 14:54:00,65.0,58.0,30.09,SSE,161,1.0,4.0,79,0.00,,,0.03,,2013-09-07 21:54:00,
2013-09-07 15:13:00,65.0,58.0,30.09,SSE,147,0.0,4.0,79,0.00,,,0.03,,2013-09-07 22:13:00,
2013-09-07 15:24:00,65.0,58.0,30.09,South,173,0.0,0.0,78,0.00,,,0.03,,2013-09-07 22:24:00,
2013-09-07 15:43:00,65.0,58.0,30.09,South,173,0.0,2.0,78,0.00,,,0.03,,2013-09-07 22:43:00,
2013-09-07 15:53:00,66.0,58.0,30.08,South,173,0.0,1.0,75,0.00,,,0.03,,2013-09-07 22:53:00,
2013-09-07 16:12:00,67.0,59.0,30.07,SE,135,2.0,3.0,75,0.00,,,0.03,,2013-09-07 23:12:00,
2013-09-07 16:23:00,67.0,58.0,30.07,SSE,164,2.0,3.0,72,0.00,,,0.02,,2013-09-07 23:23:00,
2013-09-07 16:42:00,67.0,58.0,30.06,ESE,110,1.0,3.0,72,0.00,,,0.02,,2013-09-07 23:42:00,
2013-09-07 16:52:00,68.0,57.0,30.06,South,177,2.0,4.0,68,0.00,,,0.02,,2013-09-07 23:52:00,
2013-09-07 17:11:00,68.0,58.0,30.06,South,171,2.0,4.0,71,0.00,,,0.02,,2013-09-08 00:11:00,
2013-09-07 17:22:00,68.0,56.0,30.05,South,173,0.0,4.0,66,0.00,,,0.02,,2013-09-08 00:22:00,
2013-09-07 17:42:00,69.0,56.0,30.05,WNW,288,5.0,9.0,64,0.00,,,0.02,,2013-09-08 00:42:00,
2013-09-07 17:52:00,68.0,54.0,30.05,WNW,294,3.0,4.0,62,0.00,,,0.02,,2013-09-08 00:52:00,
2013-09-07 18:11:00,68.0,55.0,30.04,West,279,1.0,4.0,63,0.00,,,0.02,,2013-09-08 01:11:00,
2013-09-07 18:22:00,70.0,58.0,30.04,WSW,244,0.0,3.0,66,0.00,,,0.02,,2013-09-08 01:22:00,
2013-09-07 18:42:00,69.0,57.0,30.03,WSW,239,0.0,3.0,65,0.00,,,0.02,,2013-09-08 01:42:00,
2013-09-07 18:52:00,67.0,57.0,30.03,WNW,293,4.0,5.0,70,0.00,,,0.02,,2013-09-08 01:52:00,
2013-09-07 19:11:00,66.0,58.0,30.03,WNW,298,2.0,4.0,75,0.00,,,0.02,,2013-09-08 02:11:00,
2013-09-07 19:22:00,65.0,57.0,30.03,WNW,292,3.0,4.0,75,0.00,,,0.02,,2013-09-08 02:22:00,
2013-09-07 19:43:00,65.0,56.0,30.03,NW,304,5.0,6.0,74,0.00,,,0.02,,2013-09-08 02:43:00,
2013-09-07 19:52:00,65.0,57.0,30.04,WNW,289,2.0,5.0,76,0.00,,,0.02,,2013-09-08 02:52:00,
2013-09-07 20:12:00,64.0,57.0,30.04,WNW,298,3.0,5.0,78,0.00,,,0.02,,2013-09-08 03:12:00,
2013-09-07 20:22:00,63.0,57.0,30.04,WNW,298,1.0,2.0,80,0.00,,,0.02,,2013-09-08 03:22:00,
2013-09-07 20:44:00,64.0,57.0,30.04,WNW,303,3.0,8.0,79,0.00,,,0.02,,2013-09-08 03:44:00,
2013-09-07 20:54:00,64.0,57.0,30.05,WNW,294,3.0,5.0,79,0.00,,,0.02,,2013-09-08 03:54:00,
2013-09-07 21:02:00,-999.0,-99.9,30.05,WNW,296,0.0,6.0,-999,-99.99,,,-99.99,,2013-09-08 04:02:00,
2013-09-07 21:14:00,63.0,57.0,30.05,WNW,296,0.0,6.0,80,0.00,,,0.02,,2013-09-08 04:14:00,
2013-09-07 21:24:00,63.0,56.0,30.04,NW,306,2.0,5.0,78,0.00,,,0.02,,2013-09-08 04:24:00,
2013-09-07 21:43:00,61.0,56.0,30.06,East,92,1.0,3.0,83,0.00,,,0.02,,2013-09-08 04:43:00,
2013-09-07 21:54:00,61.0,56.0,30.06,WNW,296,0.0,4.0,85,0.00,,,0.02,,2013-09-08 04:54:00,
2013-09-07 22:12:00,61.0,56.0,30.06,South,190,1.0,7.0,83,0.00,,,0.02,,2013-09-08 05:12:00,
2013-09-07 22:23:00,61.0,56.0,30.06,North,5,2.0,6.0,83,0.00,,,0.02,,2013-09-08 05:23:00,
2013-09-07 22:43:00,61.0,55.0,30.06,NW,326,4.0,7.0,80,0.00,,,0.02,,2013-09-08 05:43:00,
2013-09-07 22:52:00,61.0,55.0,30.06,ENE,64,0.0,3.0,81,0.00,,,0.02,,2013-09-08 05:52:00,
2013-09-07 23:02:00,61.0,55.0,30.06,ENE,64,0.0,3.0,81,0.00,,,0.02,,2013-09-08 06:02:00,
2013-09-07 23:12:00,61.0,55.0,30.06,ENE,64,0.0,3.0,81,0.00,,,0.02,,2013-09-08 06:12:00,
2013-09-07 23:21:00,61.0,55.0,30.06,ENE,64,0.0,3.0,81,0.00,,,0.02,,2013-09-08 06:21:00,
2013-09-07 23:32:00,61.0,55.0,30.06,ENE,64,0.0,3.0,81,0.00,,,0.02,,2013-09-08 06:32:00,